sensor_id;sensor_type;location;lat;lon;timestamp;temperature;humidity
60242;SHT30;46103;52.076;113.488;2022-11-20T00:01:35;-16.38;60.25
60242;SHT30;46103;52.076;113.488;2022-11-20T00:04:39;-16.44;63.03
60242;SHT30;46103;52.076;113.488;2022-11-20T00:07:43;-16.34;62.77
60242;SHT30;46103;52.076;113.488;2022-11-20T00:10:47;-16.37;64.22
60242;SHT30;46103;52.076;113.488;2022-11-20T00:13:53;-16.34;65.49
60242;SHT30;46103;52.076;113.488;2022-11-20T00:16:57;-16.28;64.41
60242;SHT30;46103;52.076;113.488;2022-11-20T00:20:01;-16.24;65.41
60242;SHT30;46103;52.076;113.488;2022-11-20T00:23:04;-16.14;64.30
60242;SHT30;46103;52.076;113.488;2022-11-20T00:26:14;-16.06;63.92
60242;SHT30;46103;52.076;113.488;2022-11-20T00:29:18;-16.02;63.36
60242;SHT30;46103;52.076;113.488;2022-11-20T00:32:23;-15.97;62.84
60242;SHT30;46103;52.076;113.488;2022-11-20T00:35:26;-15.93;62.80
60242;SHT30;46103;52.076;113.488;2022-11-20T00:38:31;-15.79;62.57
60242;SHT30;46103;52.076;113.488;2022-11-20T00:41:35;-15.81;62.87
60242;SHT30;46103;52.076;113.488;2022-11-20T00:44:39;-15.85;64.48
60242;SHT30;46103;52.076;113.488;2022-11-20T00:47:43;-15.99;64.77
60242;SHT30;46103;52.076;113.488;2022-11-20T00:50:46;-15.81;63.28
60242;SHT30;46103;52.076;113.488;2022-11-20T00:53:56;-15.85;62.82
60242;SHT30;46103;52.076;113.488;2022-11-20T00:57:00;-15.66;59.90
60242;SHT30;46103;52.076;113.488;2022-11-20T01:00:03;-15.64;58.94
60242;SHT30;46103;52.076;113.488;2022-11-20T01:03:07;-15.65;60.99
60242;SHT30;46103;52.076;113.488;2022-11-20T01:06:20;-15.58;60.19
60242;SHT30;46103;52.076;113.488;2022-11-20T01:09:24;-15.61;60.62
60242;SHT30;46103;52.076;113.488;2022-11-20T01:12:28;-15.45;59.10
60242;SHT30;46103;52.076;113.488;2022-11-20T01:15:33;-15.45;60.06
60242;SHT30;46103;52.076;113.488;2022-11-20T01:18:39;-15.34;60.06
60242;SHT30;46103;52.076;113.488;2022-11-20T01:21:45;-15.37;60.91
60242;SHT30;46103;52.076;113.488;2022-11-20T01:24:49;-15.40;60.48
60242;SHT30;46103;52.076;113.488;2022-11-20T01:27:53;-15.31;60.36
60242;SHT30;46103;52.076;113.488;2022-11-20T01:30:57;-15.22;59.56
60242;SHT30;46103;52.076;113.488;2022-11-20T01:34:06;-15.03;58.68
60242;SHT30;46103;52.076;113.488;2022-11-20T01:37:09;-14.81;57.75
60242;SHT30;46103;52.076;113.488;2022-11-20T01:40:12;-14.71;57.55
60242;SHT30;46103;52.076;113.488;2022-11-20T01:43:18;-14.57;57.73
60242;SHT30;46103;52.076;113.488;2022-11-20T01:46:23;-14.46;57.16
60242;SHT30;46103;52.076;113.488;2022-11-20T01:49:33;-14.32;56.98
60242;SHT30;46103;52.076;113.488;2022-11-20T01:52:44;-14.16;56.52
60242;SHT30;46103;52.076;113.488;2022-11-20T01:55:51;-14.09;56.03
60242;SHT30;46103;52.076;113.488;2022-11-20T01:58:58;-13.96;55.70
60242;SHT30;46103;52.076;113.488;2022-11-20T02:02:04;-13.88;55.73
60242;SHT30;46103;52.076;113.488;2022-11-20T02:08:34;-13.78;54.91
60242;SHT30;46103;52.076;113.488;2022-11-20T02:11:38;-13.64;54.60
60242;SHT30;46103;52.076;113.488;2022-11-20T02:14:42;-13.51;54.14
60242;SHT30;46103;52.076;113.488;2022-11-20T02:17:45;-13.42;53.28
60242;SHT30;46103;52.076;113.488;2022-11-20T02:20:54;-13.27;52.61
60242;SHT30;46103;52.076;113.488;2022-11-20T02:24:04;-13.20;51.91
60242;SHT30;46103;52.076;113.488;2022-11-20T02:27:16;-13.18;51.31
60242;SHT30;46103;52.076;113.488;2022-11-20T02:30:20;-13.09;51.34
60242;SHT30;46103;52.076;113.488;2022-11-20T02:33:23;-12.99;50.60
60242;SHT30;46103;52.076;113.488;2022-11-20T02:36:28;-12.96;51.35
60242;SHT30;46103;52.076;113.488;2022-11-20T02:39:34;-12.75;51.71
60242;SHT30;46103;52.076;113.488;2022-11-20T02:42:37;-12.59;51.69
60242;SHT30;46103;52.076;113.488;2022-11-20T02:45:41;-12.61;52.63
60242;SHT30;46103;52.076;113.488;2022-11-20T02:48:45;-12.47;52.76
60242;SHT30;46103;52.076;113.488;2022-11-20T02:51:49;-12.56;53.10
60242;SHT30;46103;52.076;113.488;2022-11-20T02:54:53;-12.59;53.39
60242;SHT30;46103;52.076;113.488;2022-11-20T02:57:57;-12.63;53.61
60242;SHT30;46103;52.076;113.488;2022-11-20T03:01:03;-12.74;53.91
60242;SHT30;46103;52.076;113.488;2022-11-20T03:04:07;-12.70;54.37
60242;SHT30;46103;52.076;113.488;2022-11-20T03:07:11;-12.59;54.34
60242;SHT30;46103;52.076;113.488;2022-11-20T03:10:16;-12.32;54.10
60242;SHT30;46103;52.076;113.488;2022-11-20T03:13:20;-12.11;53.73
60242;SHT30;46103;52.076;113.488;2022-11-20T03:16:23;-11.88;53.03
60242;SHT30;46103;52.076;113.488;2022-11-20T03:19:27;-11.70;52.74
60242;SHT30;46103;52.076;113.488;2022-11-20T03:22:31;-11.61;52.67
60242;SHT30;46103;52.076;113.488;2022-11-20T03:25:35;-11.40;52.57
60242;SHT30;46103;52.076;113.488;2022-11-20T03:28:39;-11.22;51.89
60242;SHT30;46103;52.076;113.488;2022-11-20T03:31:43;-11.08;51.59
60242;SHT30;46103;52.076;113.488;2022-11-20T03:34:47;-10.92;51.44
60242;SHT30;46103;52.076;113.488;2022-11-20T03:37:50;-10.83;51.03
60242;SHT30;46103;52.076;113.488;2022-11-20T03:40:59;-10.85;50.83
60242;SHT30;46103;52.076;113.488;2022-11-20T03:44:04;-10.92;50.69
60242;SHT30;46103;52.076;113.488;2022-11-20T03:47:08;-11.00;50.98
60242;SHT30;46103;52.076;113.488;2022-11-20T03:50:13;-10.91;51.31
60242;SHT30;46103;52.076;113.488;2022-11-20T03:53:17;-10.89;51.19
60242;SHT30;46103;52.076;113.488;2022-11-20T03:56:26;-10.97;52.05
60242;SHT30;46103;52.076;113.488;2022-11-20T03:59:30;-11.04;52.67
60242;SHT30;46103;52.076;113.488;2022-11-20T04:02:34;-10.75;52.04
60242;SHT30;46103;52.076;113.488;2022-11-20T04:05:40;-10.70;51.10
60242;SHT30;46103;52.076;113.488;2022-11-20T04:08:43;-10.73;51.50
60242;SHT30;46103;52.076;113.488;2022-11-20T04:11:54;-10.56;51.64
60242;SHT30;46103;52.076;113.488;2022-11-20T04:14:59;-10.46;50.92
60242;SHT30;46103;52.076;113.488;2022-11-20T04:18:03;-10.43;50.72
60242;SHT30;46103;52.076;113.488;2022-11-20T04:21:07;-10.32;50.73
60242;SHT30;46103;52.076;113.488;2022-11-20T04:24:11;-10.24;50.32
60242;SHT30;46103;52.076;113.488;2022-11-20T04:27:15;-10.21;50.03
60242;SHT30;46103;52.076;113.488;2022-11-20T04:30:19;-10.04;50.02
60242;SHT30;46103;52.076;113.488;2022-11-20T04:33:22;-9.81;49.40
60242;SHT30;46103;52.076;113.488;2022-11-20T04:36:29;-9.49;48.21
60242;SHT30;46103;52.076;113.488;2022-11-20T04:39:33;-9.21;47.24
60242;SHT30;46103;52.076;113.488;2022-11-20T04:42:37;-8.80;46.50
60242;SHT30;46103;52.076;113.488;2022-11-20T04:45:41;-8.49;45.48
60242;SHT30;46103;52.076;113.488;2022-11-20T04:48:45;-8.21;44.52
60242;SHT30;46103;52.076;113.488;2022-11-20T04:51:54;-8.02;44.49
60242;SHT30;46103;52.076;113.488;2022-11-20T04:54:58;-7.53;43.20
60242;SHT30;46103;52.076;113.488;2022-11-20T04:58:02;-7.21;42.31
60242;SHT30;46103;52.076;113.488;2022-11-20T05:01:09;-7.21;41.85
60242;SHT30;46103;52.076;113.488;2022-11-20T05:04:13;-7.52;42.01
60242;SHT30;46103;52.076;113.488;2022-11-20T05:07:17;-8.05;43.59
60242;SHT30;46103;52.076;113.488;2022-11-20T05:10:20;-8.38;44.54
60242;SHT30;46103;52.076;113.488;2022-11-20T05:13:24;-8.47;45.25
60242;SHT30;46103;52.076;113.488;2022-11-20T05:16:28;-8.50;45.89
60242;SHT30;46103;52.076;113.488;2022-11-20T05:19:32;-8.50;45.71
60242;SHT30;46103;52.076;113.488;2022-11-20T05:22:38;-8.54;46.03
60242;SHT30;46103;52.076;113.488;2022-11-20T05:25:45;-8.39;45.90
60242;SHT30;46103;52.076;113.488;2022-11-20T05:28:57;-8.26;45.38
60242;SHT30;46103;52.076;113.488;2022-11-20T05:32:04;-8.08;45.50
60242;SHT30;46103;52.076;113.488;2022-11-20T05:35:09;-7.93;45.22
60242;SHT30;46103;52.076;113.488;2022-11-20T05:38:14;-7.83;45.06
60242;SHT30;46103;52.076;113.488;2022-11-20T05:41:19;-7.61;43.78
60242;SHT30;46103;52.076;113.488;2022-11-20T05:44:22;-7.43;43.50
60242;SHT30;46103;52.076;113.488;2022-11-20T05:47:27;-7.44;43.33
60242;SHT30;46103;52.076;113.488;2022-11-20T05:50:34;-7.29;42.93
60242;SHT30;46103;52.076;113.488;2022-11-20T05:53:37;-7.09;42.52
60242;SHT30;46103;52.076;113.488;2022-11-20T05:56:49;-6.95;42.35
60242;SHT30;46103;52.076;113.488;2022-11-20T05:59:52;-6.77;42.07
60242;SHT30;46103;52.076;113.488;2022-11-20T06:02:56;-6.69;41.71
60242;SHT30;46103;52.076;113.488;2022-11-20T06:06:01;-6.60;41.79
60242;SHT30;46103;52.076;113.488;2022-11-20T06:09:05;-6.53;40.76
60242;SHT30;46103;52.076;113.488;2022-11-20T06:12:08;-6.43;40.89
60242;SHT30;46103;52.076;113.488;2022-11-20T06:15:12;-6.45;40.44
60242;SHT30;46103;52.076;113.488;2022-11-20T06:18:15;-6.40;40.00
60242;SHT30;46103;52.076;113.488;2022-11-20T06:21:21;-6.36;40.27
60242;SHT30;46103;52.076;113.488;2022-11-20T06:24:25;-6.30;39.99
60242;SHT30;46103;52.076;113.488;2022-11-20T06:27:29;-6.39;38.97
60242;SHT30;46103;52.076;113.488;2022-11-20T06:30:32;-6.24;38.52
60242;SHT30;46103;52.076;113.488;2022-11-20T06:33:36;-6.25;37.96
60242;SHT30;46103;52.076;113.488;2022-11-20T06:36:40;-6.18;37.24
60242;SHT30;46103;52.076;113.488;2022-11-20T06:39:44;-6.21;36.62
60242;SHT30;46103;52.076;113.488;2022-11-20T06:42:47;-6.14;36.15
60242;SHT30;46103;52.076;113.488;2022-11-20T06:45:55;-5.98;35.83
60242;SHT30;46103;52.076;113.488;2022-11-20T06:49:00;-5.90;35.45
60242;SHT30;46103;52.076;113.488;2022-11-20T06:52:04;-5.90;35.49
60242;SHT30;46103;52.076;113.488;2022-11-20T06:55:08;-5.97;35.77
60242;SHT30;46103;52.076;113.488;2022-11-20T06:58:15;-5.84;35.77
60242;SHT30;46103;52.076;113.488;2022-11-20T07:01:18;-5.71;35.38
60242;SHT30;46103;52.076;113.488;2022-11-20T07:04:21;-5.64;35.13
60242;SHT30;46103;52.076;113.488;2022-11-20T07:07:24;-5.56;35.35
60242;SHT30;46103;52.076;113.488;2022-11-20T07:10:28;-5.38;35.07
60242;SHT30;46103;52.076;113.488;2022-11-20T07:13:32;-5.33;34.76
60242;SHT30;46103;52.076;113.488;2022-11-20T07:16:36;-5.29;34.78
60242;SHT30;46103;52.076;113.488;2022-11-20T07:19:40;-5.25;34.76
60242;SHT30;46103;52.076;113.488;2022-11-20T07:22:43;-5.21;34.72
60242;SHT30;46103;52.076;113.488;2022-11-20T07:25:47;-5.12;34.80
60242;SHT30;46103;52.076;113.488;2022-11-20T07:28:50;-5.03;34.14
60242;SHT30;46103;52.076;113.488;2022-11-20T07:31:53;-4.98;33.72
60242;SHT30;46103;52.076;113.488;2022-11-20T07:34:58;-5.00;33.52
60242;SHT30;46103;52.076;113.488;2022-11-20T07:38:02;-5.00;33.88
60242;SHT30;46103;52.076;113.488;2022-11-20T07:41:05;-5.04;33.92
60242;SHT30;46103;52.076;113.488;2022-11-20T07:44:09;-5.08;33.97
60242;SHT30;46103;52.076;113.488;2022-11-20T07:47:13;-5.12;33.72
60242;SHT30;46103;52.076;113.488;2022-11-20T07:50:20;-5.15;33.84
60242;SHT30;46103;52.076;113.488;2022-11-20T07:53:23;-5.19;34.03
60242;SHT30;46103;52.076;113.488;2022-11-20T07:56:27;-5.25;34.47
60242;SHT30;46103;52.076;113.488;2022-11-20T07:59:31;-5.33;34.90
60242;SHT30;46103;52.076;113.488;2022-11-20T08:02:40;-5.48;34.72
60242;SHT30;46103;52.076;113.488;2022-11-20T08:05:45;-5.50;34.69
60242;SHT30;46103;52.076;113.488;2022-11-20T08:08:48;-5.55;34.86
60242;SHT30;46103;52.076;113.488;2022-11-20T08:11:52;-5.76;35.05
60242;SHT30;46103;52.076;113.488;2022-11-20T08:15:13;-5.94;35.28
60242;SHT30;46103;52.076;113.488;2022-11-20T08:18:17;-6.12;35.60
60242;SHT30;46103;52.076;113.488;2022-11-20T08:21:36;-6.33;36.61
60242;SHT30;46103;52.076;113.488;2022-11-20T08:24:40;-6.57;37.84
60242;SHT30;46103;52.076;113.488;2022-11-20T08:27:44;-6.90;38.54
60242;SHT30;46103;52.076;113.488;2022-11-20T08:30:49;-7.29;38.87
60242;SHT30;46103;52.076;113.488;2022-11-20T08:33:53;-7.60;38.87
60242;SHT30;46103;52.076;113.488;2022-11-20T08:36:57;-7.94;39.21
60242;SHT30;46103;52.076;113.488;2022-11-20T08:40:02;-8.24;40.50
60242;SHT30;46103;52.076;113.488;2022-11-20T08:43:05;-8.40;41.10
60242;SHT30;46103;52.076;113.488;2022-11-20T08:46:09;-8.64;41.32
60242;SHT30;46103;52.076;113.488;2022-11-20T08:49:17;-8.90;42.17
60242;SHT30;46103;52.076;113.488;2022-11-20T08:52:21;-9.12;42.67
60242;SHT30;46103;52.076;113.488;2022-11-20T08:55:26;-9.28;43.28
60242;SHT30;46103;52.076;113.488;2022-11-20T08:58:29;-9.39;43.97
60242;SHT30;46103;52.076;113.488;2022-11-20T09:01:52;-9.42;44.36
60242;SHT30;46103;52.076;113.488;2022-11-20T09:04:56;-9.44;42.85
60242;SHT30;46103;52.076;113.488;2022-11-20T09:08:00;-9.49;42.47
60242;SHT30;46103;52.076;113.488;2022-11-20T09:11:05;-9.53;42.29
60242;SHT30;46103;52.076;113.488;2022-11-20T09:14:09;-9.49;42.52
60242;SHT30;46103;52.076;113.488;2022-11-20T09:17:12;-9.60;43.20
60242;SHT30;46103;52.076;113.488;2022-11-20T09:20:18;-9.75;44.61
60242;SHT30;46103;52.076;113.488;2022-11-20T09:23:22;-10.04;46.26
60242;SHT30;46103;52.076;113.488;2022-11-20T09:26:27;-10.21;46.69
60242;SHT30;46103;52.076;113.488;2022-11-20T09:29:37;-10.54;48.09
60242;SHT30;46103;52.076;113.488;2022-11-20T09:32:42;-10.70;48.86
60242;SHT30;46103;52.076;113.488;2022-11-20T09:35:49;-10.71;48.98
60242;SHT30;46103;52.076;113.488;2022-11-20T09:38:54;-10.73;48.40
60242;SHT30;46103;52.076;113.488;2022-11-20T09:52:44;-11.08;47.06
60242;SHT30;46103;52.076;113.488;2022-11-20T09:55:50;-11.11;47.76
60242;SHT30;46103;52.076;113.488;2022-11-20T09:58:56;-11.16;48.97
60242;SHT30;46103;52.076;113.488;2022-11-20T10:02:03;-11.19;49.98
60242;SHT30;46103;52.076;113.488;2022-11-20T10:05:37;-11.25;49.32
60242;SHT30;46103;52.076;113.488;2022-11-20T10:08:53;-11.29;49.55
60242;SHT30;46103;52.076;113.488;2022-11-20T10:26:01;-11.43;49.47
60242;SHT30;46103;52.076;113.488;2022-11-20T10:32:25;-11.57;48.24
60242;SHT30;46103;52.076;113.488;2022-11-20T10:35:34;-11.61;49.79
60242;SHT30;46103;52.076;113.488;2022-11-20T10:39:07;-11.63;50.21
60242;SHT30;46103;52.076;113.488;2022-11-20T10:42:26;-11.70;51.12
60242;SHT30;46103;52.076;113.488;2022-11-20T10:48:44;-11.85;52.29
60242;SHT30;46103;52.076;113.488;2022-11-20T10:55:42;-12.11;53.45
60242;SHT30;46103;52.076;113.488;2022-11-20T11:02:24;-12.30;55.16
60242;SHT30;46103;52.076;113.488;2022-11-20T11:09:16;-12.35;53.95
60242;SHT30;46103;52.076;113.488;2022-11-20T11:12:27;-12.35;53.22
60242;SHT30;46103;52.076;113.488;2022-11-20T11:15:39;-12.25;52.93
60242;SHT30;46103;52.076;113.488;2022-11-20T11:18:43;-12.18;53.58
60242;SHT30;46103;52.076;113.488;2022-11-20T11:21:54;-12.09;53.70
60242;SHT30;46103;52.076;113.488;2022-11-20T11:24:59;-12.11;53.49
60242;SHT30;46103;52.076;113.488;2022-11-20T11:28:17;-12.14;53.23
60242;SHT30;46103;52.076;113.488;2022-11-20T11:31:28;-12.12;53.01
60242;SHT30;46103;52.076;113.488;2022-11-20T11:34:33;-12.19;53.10
60242;SHT30;46103;52.076;113.488;2022-11-20T11:37:38;-12.22;53.40
60242;SHT30;46103;52.076;113.488;2022-11-20T11:40:43;-12.24;54.13
60242;SHT30;46103;52.076;113.488;2022-11-20T11:43:55;-12.29;54.05
60242;SHT30;46103;52.076;113.488;2022-11-20T11:47:29;-12.36;54.04
60242;SHT30;46103;52.076;113.488;2022-11-20T11:50:33;-12.36;54.02
60242;SHT30;46103;52.076;113.488;2022-11-20T11:53:41;-12.39;53.97
60242;SHT30;46103;52.076;113.488;2022-11-20T11:56:45;-12.40;54.36
60242;SHT30;46103;52.076;113.488;2022-11-20T12:00:09;-12.46;54.43
60242;SHT30;46103;52.076;113.488;2022-11-20T12:03:21;-12.46;54.34
60242;SHT30;46103;52.076;113.488;2022-11-20T12:06:27;-12.49;54.43
60242;SHT30;46103;52.076;113.488;2022-11-20T12:09:37;-12.46;54.28
60242;SHT30;46103;52.076;113.488;2022-11-20T12:12:55;-12.52;54.99
60242;SHT30;46103;52.076;113.488;2022-11-20T12:16:03;-12.52;55.21
60242;SHT30;46103;52.076;113.488;2022-11-20T12:19:12;-12.59;54.33
60242;SHT30;46103;52.076;113.488;2022-11-20T12:25:48;-12.92;54.81
60242;SHT30;46103;52.076;113.488;2022-11-20T12:29:11;-13.05;55.80
60242;SHT30;46103;52.076;113.488;2022-11-20T12:36:27;-13.30;57.05
60242;SHT30;46103;52.076;113.488;2022-11-20T12:40:07;-13.51;58.18
60242;SHT30;46103;52.076;113.488;2022-11-20T12:46:46;-13.85;58.74
60242;SHT30;46103;52.076;113.488;2022-11-20T12:50:15;-13.96;58.40
60242;SHT30;46103;52.076;113.488;2022-11-20T12:53:37;-14.13;58.55
60242;SHT30;46103;52.076;113.488;2022-11-20T12:57:13;-14.22;58.22
60242;SHT30;46103;52.076;113.488;2022-11-20T13:00:20;-14.30;58.31
60242;SHT30;46103;52.076;113.488;2022-11-20T13:03:44;-14.44;59.05
60242;SHT30;46103;52.076;113.488;2022-11-20T13:06:51;-14.57;59.34
60242;SHT30;46103;52.076;113.488;2022-11-20T13:09:55;-14.63;59.67
60242;SHT30;46103;52.076;113.488;2022-11-20T13:17:30;-14.72;60.66
60242;SHT30;46103;52.076;113.488;2022-11-20T13:20:15;-14.79;60.75
60242;SHT30;46103;52.076;113.488;2022-11-20T13:23:24;-14.85;61.08
60242;SHT30;46103;52.076;113.488;2022-11-20T13:26:31;-14.81;61.01
60242;SHT30;46103;52.076;113.488;2022-11-20T13:29:35;-14.84;60.75
60242;SHT30;46103;52.076;113.488;2022-11-20T13:32:54;-14.86;61.02
60242;SHT30;46103;52.076;113.488;2022-11-20T13:36:19;-14.91;61.27
60242;SHT30;46103;52.076;113.488;2022-11-20T13:39:26;-14.92;61.30
60242;SHT30;46103;52.076;113.488;2022-11-20T13:42:29;-14.96;61.11
60242;SHT30;46103;52.076;113.488;2022-11-20T13:45:33;-14.99;60.94
60242;SHT30;46103;52.076;113.488;2022-11-20T13:48:42;-15.06;60.13
60242;SHT30;46103;52.076;113.488;2022-11-20T13:51:51;-15.15;59.74
60242;SHT30;46103;52.076;113.488;2022-11-20T14:01:33;-15.30;59.32
60242;SHT30;46103;52.076;113.488;2022-11-20T14:04:48;-15.33;59.74
60242;SHT30;46103;52.076;113.488;2022-11-20T14:07:57;-15.40;59.95
60242;SHT30;46103;52.076;113.488;2022-11-20T14:11:23;-15.45;60.11
60242;SHT30;46103;52.076;113.488;2022-11-20T14:14:29;-15.47;60.29
60242;SHT30;46103;52.076;113.488;2022-11-20T14:17:35;-15.47;60.03
60242;SHT30;46103;52.076;113.488;2022-11-20T14:20:43;-15.50;59.97
60242;SHT30;46103;52.076;113.488;2022-11-20T14:23:51;-15.54;59.61
60242;SHT30;46103;52.076;113.488;2022-11-20T14:26:57;-15.59;59.49
60242;SHT30;46103;52.076;113.488;2022-11-20T14:30:03;-15.65;59.40
60242;SHT30;46103;52.076;113.488;2022-11-20T14:33:11;-15.69;59.03
60242;SHT30;46103;52.076;113.488;2022-11-20T14:36:21;-15.69;58.90
60242;SHT30;46103;52.076;113.488;2022-11-20T14:39:30;-15.82;59.84
60242;SHT30;46103;52.076;113.488;2022-11-20T14:42:35;-15.89;59.43
60242;SHT30;46103;52.076;113.488;2022-11-20T14:45:41;-15.96;59.53
60242;SHT30;46103;52.076;113.488;2022-11-20T14:48:47;-16.00;59.87
60242;SHT30;46103;52.076;113.488;2022-11-20T14:52:24;-16.09;59.85
60242;SHT30;46103;52.076;113.488;2022-11-20T14:55:36;-16.12;59.81
60242;SHT30;46103;52.076;113.488;2022-11-20T14:58:40;-16.14;59.82
60242;SHT30;46103;52.076;113.488;2022-11-20T15:01:55;-16.17;59.03
60242;SHT30;46103;52.076;113.488;2022-11-20T15:05:01;-16.25;59.06
60242;SHT30;46103;52.076;113.488;2022-11-20T15:08:08;-16.27;59.55
60242;SHT30;46103;52.076;113.488;2022-11-20T15:11:18;-16.33;59.24
60242;SHT30;46103;52.076;113.488;2022-11-20T15:14:24;-16.35;58.50
60242;SHT30;46103;52.076;113.488;2022-11-20T15:17:29;-16.45;58.96
60242;SHT30;46103;52.076;113.488;2022-11-20T15:20:36;-16.62;60.27
60242;SHT30;46103;52.076;113.488;2022-11-20T15:23:39;-16.71;60.11
60242;SHT30;46103;52.076;113.488;2022-11-20T15:26:43;-16.73;60.29
60242;SHT30;46103;52.076;113.488;2022-11-20T15:29:48;-16.79;60.19
60242;SHT30;46103;52.076;113.488;2022-11-20T15:32:51;-16.80;60.57
60242;SHT30;46103;52.076;113.488;2022-11-20T15:35:54;-16.90;60.77
60242;SHT30;46103;52.076;113.488;2022-11-20T15:38:58;-16.89;60.47
60242;SHT30;46103;52.076;113.488;2022-11-20T15:42:02;-16.92;61.12
60242;SHT30;46103;52.076;113.488;2022-11-20T15:45:06;-16.96;61.94
60242;SHT30;46103;52.076;113.488;2022-11-20T15:48:26;-17.02;62.38
60242;SHT30;46103;52.076;113.488;2022-11-20T15:51:32;-17.02;62.93
60242;SHT30;46103;52.076;113.488;2022-11-20T15:54:40;-16.99;62.36
60242;SHT30;46103;52.076;113.488;2022-11-20T15:57:48;-16.96;61.65
60242;SHT30;46103;52.076;113.488;2022-11-20T16:00:54;-16.99;60.68
60242;SHT30;46103;52.076;113.488;2022-11-20T16:04:01;-17.06;60.78
60242;SHT30;46103;52.076;113.488;2022-11-20T16:07:07;-17.03;60.32
60242;SHT30;46103;52.076;113.488;2022-11-20T16:10:13;-17.06;60.10
60242;SHT30;46103;52.076;113.488;2022-11-20T16:13:18;-17.07;59.46
60242;SHT30;46103;52.076;113.488;2022-11-20T16:16:43;-17.13;59.47
60242;SHT30;46103;52.076;113.488;2022-11-20T16:19:52;-17.18;59.16
60242;SHT30;46103;52.076;113.488;2022-11-20T16:23:00;-17.18;58.91
60242;SHT30;46103;52.076;113.488;2022-11-20T16:26:15;-17.27;58.52
60242;SHT30;46103;52.076;113.488;2022-11-20T16:29:25;-17.31;58.18
60242;SHT30;46103;52.076;113.488;2022-11-20T16:32:35;-17.35;58.04
60242;SHT30;46103;52.076;113.488;2022-11-20T16:35:46;-17.42;58.89
60242;SHT30;46103;52.076;113.488;2022-11-20T16:38:57;-17.48;58.97
60242;SHT30;46103;52.076;113.488;2022-11-20T16:42:13;-17.58;58.56
60242;SHT30;46103;52.076;113.488;2022-11-20T16:45:23;-17.62;59.17
60242;SHT30;46103;52.076;113.488;2022-11-20T16:48:37;-17.66;59.12
60242;SHT30;46103;52.076;113.488;2022-11-20T16:51:46;-17.67;58.71
60242;SHT30;46103;52.076;113.488;2022-11-20T16:54:57;-17.67;58.97
60242;SHT30;46103;52.076;113.488;2022-11-20T16:58:05;-17.72;58.83
60242;SHT30;46103;52.076;113.488;2022-11-20T17:01:14;-17.77;59.17
60242;SHT30;46103;52.076;113.488;2022-11-20T17:04:20;-17.83;59.20
60242;SHT30;46103;52.076;113.488;2022-11-20T17:07:28;-17.77;58.97
60242;SHT30;46103;52.076;113.488;2022-11-20T17:10:33;-17.82;58.53
60242;SHT30;46103;52.076;113.488;2022-11-20T17:13:41;-17.85;58.24
60242;SHT30;46103;52.076;113.488;2022-11-20T17:16:45;-17.89;58.35
60242;SHT30;46103;52.076;113.488;2022-11-20T17:19:50;-17.93;57.67
60242;SHT30;46103;52.076;113.488;2022-11-20T17:22:53;-17.98;57.35
60242;SHT30;46103;52.076;113.488;2022-11-20T17:29:16;-18.15;57.05
60242;SHT30;46103;52.076;113.488;2022-11-20T17:32:23;-18.24;57.18
60242;SHT30;46103;52.076;113.488;2022-11-20T17:35:33;-18.31;56.67
60242;SHT30;46103;52.076;113.488;2022-11-20T17:38:48;-18.34;56.77
60242;SHT30;46103;52.076;113.488;2022-11-20T17:41:58;-18.35;57.15
60242;SHT30;46103;52.076;113.488;2022-11-20T17:45:25;-18.45;57.63
60242;SHT30;46103;52.076;113.488;2022-11-20T17:48:34;-18.48;57.81
60242;SHT30;46103;52.076;113.488;2022-11-20T17:51:43;-18.52;57.96
60242;SHT30;46103;52.076;113.488;2022-11-20T17:54:53;-18.60;57.82
60242;SHT30;46103;52.076;113.488;2022-11-20T17:58:06;-18.66;58.28
60242;SHT30;46103;52.076;113.488;2022-11-20T18:01:16;-18.69;59.95
60242;SHT30;46103;52.076;113.488;2022-11-20T18:04:27;-18.66;59.59
60242;SHT30;46103;52.076;113.488;2022-11-20T18:07:39;-18.59;59.61
60242;SHT30;46103;52.076;113.488;2022-11-20T18:10:48;-18.57;59.40
60242;SHT30;46103;52.076;113.488;2022-11-20T18:13:57;-18.59;60.20
60242;SHT30;46103;52.076;113.488;2022-11-20T18:17:23;-18.56;58.67
60242;SHT30;46103;52.076;113.488;2022-11-20T18:20:31;-18.60;58.81
60242;SHT30;46103;52.076;113.488;2022-11-20T18:23:44;-18.62;58.65
60242;SHT30;46103;52.076;113.488;2022-11-20T18:26:52;-18.59;58.28
60242;SHT30;46103;52.076;113.488;2022-11-20T18:30:02;-18.57;58.23
60242;SHT30;46103;52.076;113.488;2022-11-20T18:33:14;-18.62;57.81
60242;SHT30;46103;52.076;113.488;2022-11-20T18:36:32;-18.62;57.91
60242;SHT30;46103;52.076;113.488;2022-11-20T18:39:41;-18.66;58.16
60242;SHT30;46103;52.076;113.488;2022-11-20T18:42:49;-18.67;58.70
60242;SHT30;46103;52.076;113.488;2022-11-20T18:46:15;-18.73;58.85
60242;SHT30;46103;52.076;113.488;2022-11-20T18:49:28;-18.74;58.62
60242;SHT30;46103;52.076;113.488;2022-11-20T18:52:41;-18.79;58.35
60242;SHT30;46103;52.076;113.488;2022-11-20T18:55:53;-18.81;58.47
60242;SHT30;46103;52.076;113.488;2022-11-20T18:59:04;-18.87;58.00
60242;SHT30;46103;52.076;113.488;2022-11-20T19:02:17;-18.98;56.74
60242;SHT30;46103;52.076;113.488;2022-11-20T19:05:27;-19.14;56.43
60242;SHT30;46103;52.076;113.488;2022-11-20T19:08:35;-19.16;56.39
60242;SHT30;46103;52.076;113.488;2022-11-20T19:11:43;-19.19;56.27
60242;SHT30;46103;52.076;113.488;2022-11-20T19:14:53;-19.29;56.63
60242;SHT30;46103;52.076;113.488;2022-11-20T19:18:02;-19.29;56.87
60242;SHT30;46103;52.076;113.488;2022-11-20T19:21:17;-19.35;56.82
60242;SHT30;46103;52.076;113.488;2022-11-20T19:24:28;-19.52;57.68
60242;SHT30;46103;52.076;113.488;2022-11-20T19:27:39;-19.58;58.12
60242;SHT30;46103;52.076;113.488;2022-11-20T19:30:50;-19.56;58.68
60242;SHT30;46103;52.076;113.488;2022-11-20T19:34:02;-19.63;58.56
60242;SHT30;46103;52.076;113.488;2022-11-20T19:37:11;-19.65;58.19
60242;SHT30;46103;52.076;113.488;2022-11-20T19:40:20;-19.69;58.00
60242;SHT30;46103;52.076;113.488;2022-11-20T19:43:28;-19.60;57.82
60242;SHT30;46103;52.076;113.488;2022-11-20T19:46:38;-19.60;58.91
60242;SHT30;46103;52.076;113.488;2022-11-20T19:49:45;-19.58;58.87
60242;SHT30;46103;52.076;113.488;2022-11-20T19:52:54;-19.58;58.66
60242;SHT30;46103;52.076;113.488;2022-11-20T19:56:03;-19.58;58.46
60242;SHT30;46103;52.076;113.488;2022-11-20T19:59:14;-19.52;58.33
60242;SHT30;46103;52.076;113.488;2022-11-20T20:02:27;-19.49;58.05
60242;SHT30;46103;52.076;113.488;2022-11-20T20:05:39;-19.48;57.26
60242;SHT30;46103;52.076;113.488;2022-11-20T20:09:10;-19.49;57.54